sensor_id;sensor_type;location;lat;lon;timestamp;temperature;humidity
11229;DHT22;5671;47.936;8.716;2022-09-01T00:01:43;11.90;83.60
11229;DHT22;5671;47.936;8.716;2022-09-01T00:04:12;11.90;82.90
11229;DHT22;5671;47.936;8.716;2022-09-01T00:06:40;11.90;82.80
11229;DHT22;5671;47.936;8.716;2022-09-01T00:09:11;12.00;82.80
11229;DHT22;5671;47.936;8.716;2022-09-01T00:11:40;12.00;83.20
11229;DHT22;5671;47.936;8.716;2022-09-01T00:14:08;12.00;83.50
11229;DHT22;5671;47.936;8.716;2022-09-01T00:16:36;12.00;83.30
11229;DHT22;5671;47.936;8.716;2022-09-01T00:19:05;11.90;82.60
11229;DHT22;5671;47.936;8.716;2022-09-01T00:21:34;12.00;82.40
11229;DHT22;5671;47.936;8.716;2022-09-01T00:24:02;12.00;83.20
11229;DHT22;5671;47.936;8.716;2022-09-01T00:26:30;12.00;83.10
11229;DHT22;5671;47.936;8.716;2022-09-01T00:28:58;12.00;83.40
11229;DHT22;5671;47.936;8.716;2022-09-01T00:31:25;12.00;82.70
11229;DHT22;5671;47.936;8.716;2022-09-01T00:33:52;12.00;82.80
11229;DHT22;5671;47.936;8.716;2022-09-01T00:36:20;12.00;82.80
11229;DHT22;5671;47.936;8.716;2022-09-01T00:38:48;12.00;82.60
11229;DHT22;5671;47.936;8.716;2022-09-01T00:41:16;12.00;82.60
11229;DHT22;5671;47.936;8.716;2022-09-01T00:43:48;12.00;81.20
11229;DHT22;5671;47.936;8.716;2022-09-01T00:46:17;12.00;82.60
11229;DHT22;5671;47.936;8.716;2022-09-01T00:48:45;11.90;82.30
11229;DHT22;5671;47.936;8.716;2022-09-01T00:51:13;12.00;82.20
11229;DHT22;5671;47.936;8.716;2022-09-01T00:53:41;11.90;82.90
11229;DHT22;5671;47.936;8.716;2022-09-01T00:56:11;11.90;83.00
11229;DHT22;5671;47.936;8.716;2022-09-01T00:58:39;11.90;82.50
11229;DHT22;5671;47.936;8.716;2022-09-01T01:01:08;11.90;81.50
11229;DHT22;5671;47.936;8.716;2022-09-01T01:03:36;11.90;81.50
11229;DHT22;5671;47.936;8.716;2022-09-01T01:06:06;11.90;81.30
11229;DHT22;5671;47.936;8.716;2022-09-01T01:08:36;11.80;81.00
11229;DHT22;5671;47.936;8.716;2022-09-01T01:11:06;11.80;80.90
11229;DHT22;5671;47.936;8.716;2022-09-01T01:13:46;11.70;80.50
11229;DHT22;5671;47.936;8.716;2022-09-01T01:16:17;11.70;81.60
11229;DHT22;5671;47.936;8.716;2022-09-01T01:18:44;11.70;81.50
11229;DHT22;5671;47.936;8.716;2022-09-01T01:21:16;11.70;81.50
11229;DHT22;5671;47.936;8.716;2022-09-01T01:24:07;11.60;81.20
11229;DHT22;5671;47.936;8.716;2022-09-01T01:26:36;11.60;82.10
11229;DHT22;5671;47.936;8.716;2022-09-01T01:29:03;11.60;83.00
11229;DHT22;5671;47.936;8.716;2022-09-01T01:31:34;11.50;82.50
11229;DHT22;5671;47.936;8.716;2022-09-01T01:34:01;11.50;83.00
11229;DHT22;5671;47.936;8.716;2022-09-01T01:36:33;11.50;83.70
11229;DHT22;5671;47.936;8.716;2022-09-01T01:39:03;11.50;83.10
11229;DHT22;5671;47.936;8.716;2022-09-01T01:41:32;11.50;82.00
11229;DHT22;5671;47.936;8.716;2022-09-01T01:44:02;11.50;82.20
11229;DHT22;5671;47.936;8.716;2022-09-01T01:46:30;11.50;83.00
11229;DHT22;5671;47.936;8.716;2022-09-01T01:48:58;11.50;83.60
11229;DHT22;5671;47.936;8.716;2022-09-01T01:51:27;11.50;83.10
11229;DHT22;5671;47.936;8.716;2022-09-01T01:53:56;11.50;83.50
11229;DHT22;5671;47.936;8.716;2022-09-01T01:56:24;11.50;84.20
11229;DHT22;5671;47.936;8.716;2022-09-01T01:58:51;11.50;84.10
11229;DHT22;5671;47.936;8.716;2022-09-01T02:01:22;11.50;83.70
11229;DHT22;5671;47.936;8.716;2022-09-01T02:03:50;11.50;84.10
11229;DHT22;5671;47.936;8.716;2022-09-01T02:06:21;11.50;83.90
11229;DHT22;5671;47.936;8.716;2022-09-01T02:08:50;11.50;83.60
11229;DHT22;5671;47.936;8.716;2022-09-01T02:11:18;11.60;84.50
11229;DHT22;5671;47.936;8.716;2022-09-01T02:13:45;11.60;84.30
11229;DHT22;5671;47.936;8.716;2022-09-01T02:16:13;11.60;83.90
11229;DHT22;5671;47.936;8.716;2022-09-01T02:18:44;11.60;84.90
11229;DHT22;5671;47.936;8.716;2022-09-01T02:21:14;11.70;85.70
11229;DHT22;5671;47.936;8.716;2022-09-01T02:23:45;11.70;85.80
11229;DHT22;5671;47.936;8.716;2022-09-01T02:26:13;11.80;86.70
11229;DHT22;5671;47.936;8.716;2022-09-01T02:28:45;11.80;87.30
11229;DHT22;5671;47.936;8.716;2022-09-01T02:31:13;11.90;87.40
11229;DHT22;5671;47.936;8.716;2022-09-01T02:33:46;11.90;87.80
11229;DHT22;5671;47.936;8.716;2022-09-01T02:36:15;12.00;87.80
11229;DHT22;5671;47.936;8.716;2022-09-01T02:38:44;12.10;87.30
11229;DHT22;5671;47.936;8.716;2022-09-01T02:41:13;12.20;87.20
11229;DHT22;5671;47.936;8.716;2022-09-01T02:43:44;12.20;87.00
11229;DHT22;5671;47.936;8.716;2022-09-01T02:46:12;12.30;86.90
11229;DHT22;5671;47.936;8.716;2022-09-01T02:48:42;12.30;86.90
11229;DHT22;5671;47.936;8.716;2022-09-01T02:51:16;12.40;86.80
11229;DHT22;5671;47.936;8.716;2022-09-01T02:53:44;12.40;86.80
11229;DHT22;5671;47.936;8.716;2022-09-01T02:56:15;12.50;86.20
11229;DHT22;5671;47.936;8.716;2022-09-01T02:58:44;12.50;86.00
11229;DHT22;5671;47.936;8.716;2022-09-01T03:01:14;12.60;86.40
11229;DHT22;5671;47.936;8.716;2022-09-01T03:03:42;12.60;85.90
11229;DHT22;5671;47.936;8.716;2022-09-01T03:06:09;12.70;86.00
11229;DHT22;5671;47.936;8.716;2022-09-01T03:08:38;12.70;85.70
11229;DHT22;5671;47.936;8.716;2022-09-01T03:11:06;12.70;85.90
11229;DHT22;5671;47.936;8.716;2022-09-01T03:13:39;12.80;85.40
11229;DHT22;5671;47.936;8.716;2022-09-01T03:16:07;12.80;85.10
11229;DHT22;5671;47.936;8.716;2022-09-01T03:18:35;12.80;85.30
11229;DHT22;5671;47.936;8.716;2022-09-01T03:21:02;12.80;85.10
11229;DHT22;5671;47.936;8.716;2022-09-01T03:23:30;12.90;85.20
11229;DHT22;5671;47.936;8.716;2022-09-01T03:26:00;12.90;85.00
11229;DHT22;5671;47.936;8.716;2022-09-01T03:28:27;12.90;85.10
11229;DHT22;5671;47.936;8.716;2022-09-01T03:30:56;12.90;84.80
11229;DHT22;5671;47.936;8.716;2022-09-01T03:33:25;12.90;85.00
11229;DHT22;5671;47.936;8.716;2022-09-01T03:35:53;13.00;84.50
11229;DHT22;5671;47.936;8.716;2022-09-01T03:38:20;13.00;84.40
11229;DHT22;5671;47.936;8.716;2022-09-01T03:40:50;13.00;84.80
11229;DHT22;5671;47.936;8.716;2022-09-01T03:43:19;13.00;84.20
11229;DHT22;5671;47.936;8.716;2022-09-01T03:45:53;13.00;83.70
11229;DHT22;5671;47.936;8.716;2022-09-01T03:48:21;13.00;83.20
11229;DHT22;5671;47.936;8.716;2022-09-01T03:50:50;13.00;83.80
11229;DHT22;5671;47.936;8.716;2022-09-01T03:53:22;13.00;83.60
11229;DHT22;5671;47.936;8.716;2022-09-01T03:55:52;13.00;83.60
11229;DHT22;5671;47.936;8.716;2022-09-01T03:58:24;13.00;83.90
11229;DHT22;5671;47.936;8.716;2022-09-01T04:00:53;13.00;84.40
11229;DHT22;5671;47.936;8.716;2022-09-01T04:03:21;13.00;84.00
11229;DHT22;5671;47.936;8.716;2022-09-01T04:05:49;13.00;84.10
11229;DHT22;5671;47.936;8.716;2022-09-01T04:08:17;13.00;84.10
11229;DHT22;5671;47.936;8.716;2022-09-01T04:10:47;13.00;84.00
11229;DHT22;5671;47.936;8.716;2022-09-01T04:13:16;13.00;84.20
11229;DHT22;5671;47.936;8.716;2022-09-01T04:15:45;13.00;83.90
11229;DHT22;5671;47.936;8.716;2022-09-01T04:18:13;13.00;83.10
11229;DHT22;5671;47.936;8.716;2022-09-01T04:20:46;13.10;83.70
11229;DHT22;5671;47.936;8.716;2022-09-01T04:23:15;13.10;83.20
11229;DHT22;5671;47.936;8.716;2022-09-01T04:25:46;13.10;83.70
11229;DHT22;5671;47.936;8.716;2022-09-01T04:28:16;13.10;83.60
11229;DHT22;5671;47.936;8.716;2022-09-01T04:30:50;13.10;83.90
11229;DHT22;5671;47.936;8.716;2022-09-01T04:33:19;13.10;84.20
11229;DHT22;5671;47.936;8.716;2022-09-01T04:35:47;13.10;84.20
11229;DHT22;5671;47.936;8.716;2022-09-01T04:38:15;13.20;84.20
11229;DHT22;5671;47.936;8.716;2022-09-01T04:40:42;13.20;84.30
11229;DHT22;5671;47.936;8.716;2022-09-01T04:43:09;13.20;83.90
11229;DHT22;5671;47.936;8.716;2022-09-01T04:45:37;13.20;83.50
11229;DHT22;5671;47.936;8.716;2022-09-01T04:48:05;13.20;83.60
11229;DHT22;5671;47.936;8.716;2022-09-01T04:50:38;13.20;83.80
11229;DHT22;5671;47.936;8.716;2022-09-01T04:53:06;13.20;84.20
11229;DHT22;5671;47.936;8.716;2022-09-01T04:55:38;13.30;84.00
11229;DHT22;5671;47.936;8.716;2022-09-01T04:58:09;13.30;83.70
11229;DHT22;5671;47.936;8.716;2022-09-01T05:00:39;13.30;83.70
11229;DHT22;5671;47.936;8.716;2022-09-01T05:03:07;13.30;83.30
11229;DHT22;5671;47.936;8.716;2022-09-01T05:05:36;13.30;83.00
11229;DHT22;5671;47.936;8.716;2022-09-01T05:08:07;13.30;83.10
11229;DHT22;5671;47.936;8.716;2022-09-01T05:10:39;13.30;82.70
11229;DHT22;5671;47.936;8.716;2022-09-01T05:13:08;13.40;82.50
11229;DHT22;5671;47.936;8.716;2022-09-01T05:15:37;13.30;82.70
11229;DHT22;5671;47.936;8.716;2022-09-01T05:18:05;13.40;82.80
11229;DHT22;5671;47.936;8.716;2022-09-01T05:20:38;13.30;82.50
11229;DHT22;5671;47.936;8.716;2022-09-01T05:23:08;13.40;82.60
11229;DHT22;5671;47.936;8.716;2022-09-01T05:25:39;13.40;82.30
11229;DHT22;5671;47.936;8.716;2022-09-01T05:28:09;13.40;82.40
11229;DHT22;5671;47.936;8.716;2022-09-01T05:30:37;13.40;82.20
11229;DHT22;5671;47.936;8.716;2022-09-01T05:33:06;13.40;81.80
11229;DHT22;5671;47.936;8.716;2022-09-01T05:35:42;13.40;82.80
11229;DHT22;5671;47.936;8.716;2022-09-01T05:38:18;13.40;82.40
11229;DHT22;5671;47.936;8.716;2022-09-01T05:40:54;13.40;82.50
11229;DHT22;5671;47.936;8.716;2022-09-01T05:43:22;13.40;82.90
11229;DHT22;5671;47.936;8.716;2022-09-01T05:45:51;13.40;82.60
11229;DHT22;5671;47.936;8.716;2022-09-01T05:48:18;13.40;83.10
11229;DHT22;5671;47.936;8.716;2022-09-01T05:50:47;13.40;82.30
11229;DHT22;5671;47.936;8.716;2022-09-01T05:53:15;13.40;82.50
11229;DHT22;5671;47.936;8.716;2022-09-01T05:55:46;13.40;82.40
11229;DHT22;5671;47.936;8.716;2022-09-01T05:58:15;13.50;82.80
11229;DHT22;5671;47.936;8.716;2022-09-01T06:00:43;13.50;82.70
11229;DHT22;5671;47.936;8.716;2022-09-01T06:03:12;13.60;83.20
11229;DHT22;5671;47.936;8.716;2022-09-01T06:05:41;13.60;83.20
11229;DHT22;5671;47.936;8.716;2022-09-01T06:08:11;13.60;82.50
11229;DHT22;5671;47.936;8.716;2022-09-01T06:10:40;13.60;82.10
11229;DHT22;5671;47.936;8.716;2022-09-01T06:13:08;13.70;81.50
11229;DHT22;5671;47.936;8.716;2022-09-01T06:15:36;13.70;81.90
11229;DHT22;5671;47.936;8.716;2022-09-01T06:18:04;13.70;82.50
11229;DHT22;5671;47.936;8.716;2022-09-01T06:20:32;13.70;82.40
11229;DHT22;5671;47.936;8.716;2022-09-01T06:22:59;13.80;82.00
11229;DHT22;5671;47.936;8.716;2022-09-01T06:25:28;13.70;81.30
11229;DHT22;5671;47.936;8.716;2022-09-01T06:27:57;13.80;81.60
11229;DHT22;5671;47.936;8.716;2022-09-01T06:30:29;13.90;82.50
11229;DHT22;5671;47.936;8.716;2022-09-01T06:32:57;13.90;82.50
11229;DHT22;5671;47.936;8.716;2022-09-01T06:35:29;13.90;80.20
11229;DHT22;5671;47.936;8.716;2022-09-01T06:37:57;14.00;79.60
11229;DHT22;5671;47.936;8.716;2022-09-01T06:40:27;14.00;80.50
11229;DHT22;5671;47.936;8.716;2022-09-01T06:42:57;14.00;79.30
11229;DHT22;5671;47.936;8.716;2022-09-01T06:45:32;14.00;78.90
11229;DHT22;5671;47.936;8.716;2022-09-01T06:47:59;14.10;79.30
11229;DHT22;5671;47.936;8.716;2022-09-01T06:50:27;14.10;78.20
11229;DHT22;5671;47.936;8.716;2022-09-01T06:52:54;14.20;78.70
11229;DHT22;5671;47.936;8.716;2022-09-01T06:55:37;14.20;78.40
11229;DHT22;5671;47.936;8.716;2022-09-01T06:58:06;14.20;78.60
11229;DHT22;5671;47.936;8.716;2022-09-01T07:00:35;14.30;78.10
11229;DHT22;5671;47.936;8.716;2022-09-01T07:03:07;14.30;77.80
11229;DHT22;5671;47.936;8.716;2022-09-01T07:05:37;14.40;78.80
11229;DHT22;5671;47.936;8.716;2022-09-01T07:08:05;14.50;77.80
11229;DHT22;5671;47.936;8.716;2022-09-01T07:10:41;14.50;78.40
11229;DHT22;5671;47.936;8.716;2022-09-01T07:13:10;14.60;76.40
11229;DHT22;5671;47.936;8.716;2022-09-01T07:15:41;14.60;76.80
11229;DHT22;5671;47.936;8.716;2022-09-01T07:18:08;14.60;76.90
11229;DHT22;5671;47.936;8.716;2022-09-01T07:20:40;14.60;76.40
11229;DHT22;5671;47.936;8.716;2022-09-01T07:23:07;14.70;77.10
11229;DHT22;5671;47.936;8.716;2022-09-01T07:25:42;14.70;76.90
11229;DHT22;5671;47.936;8.716;2022-09-01T07:28:11;14.70;75.30
11229;DHT22;5671;47.936;8.716;2022-09-01T07:30:41;14.70;75.70
11229;DHT22;5671;47.936;8.716;2022-09-01T07:33:10;14.80;76.40
11229;DHT22;5671;47.936;8.716;2022-09-01T07:35:38;14.80;76.40
11229;DHT22;5671;47.936;8.716;2022-09-01T07:38:06;14.80;74.80
11229;DHT22;5671;47.936;8.716;2022-09-01T07:40:35;14.80;73.80
11229;DHT22;5671;47.936;8.716;2022-09-01T07:43:06;14.80;74.10
11229;DHT22;5671;47.936;8.716;2022-09-01T07:45:43;14.80;74.40
11229;DHT22;5671;47.936;8.716;2022-09-01T07:48:12;14.90;75.00
11229;DHT22;5671;47.936;8.716;2022-09-01T07:50:41;14.90;73.80
11229;DHT22;5671;47.936;8.716;2022-09-01T07:53:12;15.00;74.90
11229;DHT22;5671;47.936;8.716;2022-09-01T07:55:41;15.00;73.90
11229;DHT22;5671;47.936;8.716;2022-09-01T07:58:10;15.00;74.20
11229;DHT22;5671;47.936;8.716;2022-09-01T08:00:38;15.00;73.50
11229;DHT22;5671;47.936;8.716;2022-09-01T08:03:05;15.10;73.00
11229;DHT22;5671;47.936;8.716;2022-09-01T08:05:32;15.20;74.10
11229;DHT22;5671;47.936;8.716;2022-09-01T08:08:00;15.20;75.40
11229;DHT22;5671;47.936;8.716;2022-09-01T08:10:27;15.30;74.50
11229;DHT22;5671;47.936;8.716;2022-09-01T08:12:54;15.40;74.10
11229;DHT22;5671;47.936;8.716;2022-09-01T08:15:26;15.50;73.00
11229;DHT22;5671;47.936;8.716;2022-09-01T08:17:53;15.50;72.70
11229;DHT22;5671;47.936;8.716;2022-09-01T08:20:20;15.50;72.90
11229;DHT22;5671;47.936;8.716;2022-09-01T08:22:48;15.60;72.90
11229;DHT22;5671;47.936;8.716;2022-09-01T08:25:15;15.60;72.50
11229;DHT22;5671;47.936;8.716;2022-09-01T08:27:44;15.60;71.80
11229;DHT22;5671;47.936;8.716;2022-09-01T08:30:14;15.60;71.50
11229;DHT22;5671;47.936;8.716;2022-09-01T08:32:42;15.70;70.90
11229;DHT22;5671;47.936;8.716;2022-09-01T08:35:12;15.70;70.70
11229;DHT22;5671;47.936;8.716;2022-09-01T08:37:41;15.80;71.20
11229;DHT22;5671;47.936;8.716;2022-09-01T08:40:12;15.70;71.50
11229;DHT22;5671;47.936;8.716;2022-09-01T08:42:51;15.80;71.30
11229;DHT22;5671;47.936;8.716;2022-09-01T08:45:22;15.80;71.20
11229;DHT22;5671;47.936;8.716;2022-09-01T08:47:56;15.90;71.70
11229;DHT22;5671;47.936;8.716;2022-09-01T08:50:26;15.90;71.20
11229;DHT22;5671;47.936;8.716;2022-09-01T08:52:57;15.90;70.90
11229;DHT22;5671;47.936;8.716;2022-09-01T08:55:33;16.00;72.20
11229;DHT22;5671;47.936;8.716;2022-09-01T08:58:03;16.00;71.20
11229;DHT22;5671;47.936;8.716;2022-09-01T09:00:40;16.10;69.80
11229;DHT22;5671;47.936;8.716;2022-09-01T09:03:19;16.10;69.70
11229;DHT22;5671;47.936;8.716;2022-09-01T09:06:02;16.20;67.80
11229;DHT22;5671;47.936;8.716;2022-09-01T09:08:54;16.20;69.00
11229;DHT22;5671;47.936;8.716;2022-09-01T09:11:47;16.20;68.30
11229;DHT22;5671;47.936;8.716;2022-09-01T09:14:27;16.20;68.70
11229;DHT22;5671;47.936;8.716;2022-09-01T09:16:58;16.30;69.40
11229;DHT22;5671;47.936;8.716;2022-09-01T09:19:29;16.30;68.90
11229;DHT22;5671;47.936;8.716;2022-09-01T09:21:58;16.40;67.70
11229;DHT22;5671;47.936;8.716;2022-09-01T09:24:28;16.50;68.80
11229;DHT22;5671;47.936;8.716;2022-09-01T09:27:16;16.50;69.30
11229;DHT22;5671;47.936;8.716;2022-09-01T09:29:45;16.60;68.50
11229;DHT22;5671;47.936;8.716;2022-09-01T09:32:12;16.60;68.70
11229;DHT22;5671;47.936;8.716;2022-09-01T09:34:41;16.70;68.30
11229;DHT22;5671;47.936;8.716;2022-09-01T09:37:24;16.80;68.60
11229;DHT22;5671;47.936;8.716;2022-09-01T09:40:10;16.90;66.30
11229;DHT22;5671;47.936;8.716;2022-09-01T09:42:57;17.00;67.50
11229;DHT22;5671;47.936;8.716;2022-09-01T09:45:36;17.20;65.60
11229;DHT22;5671;47.936;8.716;2022-09-01T09:48:09;17.30;66.30
11229;DHT22;5671;47.936;8.716;2022-09-01T09:50:55;17.40;65.80
11229;DHT22;5671;47.936;8.716;2022-09-01T09:53:29;17.40;65.40
11229;DHT22;5671;47.936;8.716;2022-09-01T09:56:06;17.50;65.90
11229;DHT22;5671;47.936;8.716;2022-09-01T09:58:40;17.60;65.50
11229;DHT22;5671;47.936;8.716;2022-09-01T10:01:10;17.60;64.10
11229;DHT22;5671;47.936;8.716;2022-09-01T10:03:42;17.70;63.50
11229;DHT22;5671;47.936;8.716;2022-09-01T10:06:15;17.80;64.40
11229;DHT22;5671;47.936;8.716;2022-09-01T10:08:55;17.90;63.00
11229;DHT22;5671;47.936;8.716;2022-09-01T10:11:32;18.10;63.70
11229;DHT22;5671;47.936;8.716;2022-09-01T10:14:00;18.20;63.90
11229;DHT22;5671;47.936;8.716;2022-09-01T10:16:30;18.40;64.10
11229;DHT22;5671;47.936;8.716;2022-09-01T10:19:11;18.70;60.80
11229;DHT22;5671;47.936;8.716;2022-09-01T10:21:44;19.00;61.40
11229;DHT22;5671;47.936;8.716;2022-09-01T10:24:20;19.10;60.60
11229;DHT22;5671;47.936;8.716;2022-09-01T10:26:56;19.20;60.00
11229;DHT22;5671;47.936;8.716;2022-09-01T10:29:31;19.40;58.50
11229;DHT22;5671;47.936;8.716;2022-09-01T10:32:01;19.30;58.00
11229;DHT22;5671;47.936;8.716;2022-09-01T10:34:34;19.40;57.50
11229;DHT22;5671;47.936;8.716;2022-09-01T10:37:06;19.50;57.90
11229;DHT22;5671;47.936;8.716;2022-09-01T10:40:11;19.80;58.10
11229;DHT22;5671;47.936;8.716;2022-09-01T10:42:49;20.10;58.10
11229;DHT22;5671;47.936;8.716;2022-09-01T10:45:36;20.10;56.70
11229;DHT22;5671;47.936;8.716;2022-09-01T10:51:44;21.10;56.00
11229;DHT22;5671;47.936;8.716;2022-09-01T10:54:54;21.40;52.90
11229;DHT22;5671;47.936;8.716;2022-09-01T10:57:59;21.80;51.90
11229;DHT22;5671;47.936;8.716;2022-09-01T11:03:44;22.70;52.40
11229;DHT22;5671;47.936;8.716;2022-09-01T11:06:43;22.50;49.90
11229;DHT22;5671;47.936;8.716;2022-09-01T11:09:21;23.10;50.10
11229;DHT22;5671;47.936;8.716;2022-09-01T11:15:04;23.90;49.70
11229;DHT22;5671;47.936;8.716;2022-09-01T11:17:34;24.20;48.20
11229;DHT22;5671;47.936;8.716;2022-09-01T11:20:07;23.80;47.20
11229;DHT22;5671;47.936;8.716;2022-09-01T11:22:38;23.60;47.90
11229;DHT22;5671;47.936;8.716;2022-09-01T11:28:10;23.90;46.30
11229;DHT22;5671;47.936;8.716;2022-09-01T11:31:09;23.90;45.80
11229;DHT22;5671;47.936;8.716;2022-09-01T11:33:55;24.20;46.50
11229;DHT22;5671;47.936;8.716;2022-09-01T11:36:29;24.40;45.40
11229;DHT22;5671;47.936;8.716;2022-09-01T11:39:15;24.80;45.30
11229;DHT22;5671;47.936;8.716;2022-09-01T11:42:14;25.20;46.50
11229;DHT22;5671;47.936;8.716;2022-09-01T11:44:48;25.40;44.50
11229;DHT22;5671;47.936;8.716;2022-09-01T11:47:23;25.40;43.90
11229;DHT22;5671;47.936;8.716;2022-09-01T11:50:05;25.40;43.60
11229;DHT22;5671;47.936;8.716;2022-09-01T11:52:50;25.80;45.50
11229;DHT22;5671;47.936;8.716;2022-09-01T11:55:33;25.80;42.30
11229;DHT22;5671;47.936;8.716;2022-09-01T11:58:46;25.80;44.60
11229;DHT22;5671;47.936;8.716;2022-09-01T12:01:36;26.00;43.20
11229;DHT22;5671;47.936;8.716;2022-09-01T12:04:19;25.80;43.60
11229;DHT22;5671;47.936;8.716;2022-09-01T12:07:04;25.70;42.80
11229;DHT22;5671;47.936;8.716;2022-09-01T12:09:34;25.50;43.60
11229;DHT22;5671;47.936;8.716;2022-09-01T12:12:37;25.70;43.80
11229;DHT22;5671;47.936;8.716;2022-09-01T12:15:13;25.50;43.20
11229;DHT22;5671;47.936;8.716;2022-09-01T12:17:49;25.40;42.80
11229;DHT22;5671;47.936;8.716;2022-09-01T12:20:28;25.70;42.90
11229;DHT22;5671;47.936;8.716;2022-09-01T12:23:26;25.70;44.30
11229;DHT22;5671;47.936;8.716;2022-09-01T12:26:03;25.50;44.60
11229;DHT22;5671;47.936;8.716;2022-09-01T12:28:43;24.80;43.70
11229;DHT22;5671;47.936;8.716;2022-09-01T12:35:12;24.70;47.30
11229;DHT22;5671;47.936;8.716;2022-09-01T12:37:42;24.70;45.50
11229;DHT22;5671;47.936;8.716;2022-09-01T12:40:26;24.40;46.90
11229;DHT22;5671;47.936;8.716;2022-09-01T12:42:56;24.10;45.70
11229;DHT22;5671;47.936;8.716;2022-09-01T12:45:56;23.90;46.70
11229;DHT22;5671;47.936;8.716;2022-09-01T12:48:40;24.00;47.10
11229;DHT22;5671;47.936;8.716;2022-09-01T12:51:28;23.90;45.50
11229;DHT22;5671;47.936;8.716;2022-09-01T12:54:15;23.70;46.70
11229;DHT22;5671;47.936;8.716;2022-09-01T12:57:02;24.00;46.80
11229;DHT22;5671;47.936;8.716;2022-09-01T13:00:03;24.20;44.70
11229;DHT22;5671;47.936;8.716;2022-09-01T13:02:42;24.30;45.90
11229;DHT22;5671;47.936;8.716;2022-09-01T13:05:25;24.40;45.20
11229;DHT22;5671;47.936;8.716;2022-09-01T13:08:07;24.20;45.60
11229;DHT22;5671;47.936;8.716;2022-09-01T13:10:43;24.00;45.30
11229;DHT22;5671;47.936;8.716;2022-09-01T13:13:12;24.20;45.60
11229;DHT22;5671;47.936;8.716;2022-09-01T13:15:59;24.60;45.80
11229;DHT22;5671;47.936;8.716;2022-09-01T13:18:35;24.60;45.70
11229;DHT22;5671;47.936;8.716;2022-09-01T13:21:03;24.20;45.00
11229;DHT22;5671;47.936;8.716;2022-09-01T13:23:31;24.00;45.70
11229;DHT22;5671;47.936;8.716;2022-09-01T13:26:01;23.60;44.80
11229;DHT22;5671;47.936;8.716;2022-09-01T13:29:07;23.60;45.50
11229;DHT22;5671;47.936;8.716;2022-09-01T13:31:51;23.80;47.80
11229;DHT22;5671;47.936;8.716;2022-09-01T13:34:23;24.10;46.60
11229;DHT22;5671;47.936;8.716;2022-09-01T13:36:52;24.50;46.70
11229;DHT22;5671;47.936;8.716;2022-09-01T13:39:29;24.40;46.40
11229;DHT22;5671;47.936;8.716;2022-09-01T13:42:01;24.00;45.50
11229;DHT22;5671;47.936;8.716;2022-09-01T13:44:32;24.00;46.20
11229;DHT22;5671;47.936;8.716;2022-09-01T13:46:59;23.80;47.20
11229;DHT22;5671;47.936;8.716;2022-09-01T13:49:26;23.80;47.50
11229;DHT22;5671;47.936;8.716;2022-09-01T13:51:59;23.70;46.00
11229;DHT22;5671;47.936;8.716;2022-09-01T13:54:38;23.90;46.60
11229;DHT22;5671;47.936;8.716;2022-09-01T13:57:11;24.20;46.00
11229;DHT22;5671;47.936;8.716;2022-09-01T13:59:48;24.00;45.30
11229;DHT22;5671;47.936;8.716;2022-09-01T14:02:25;23.60;46.60
11229;DHT22;5671;47.936;8.716;2022-09-01T14:04:53;23.40;45.30
11229;DHT22;5671;47.936;8.716;2022-09-01T14:07:24;23.40;46.50
11229;DHT22;5671;47.936;8.716;2022-09-01T14:09:53;23.60;48.00
11229;DHT22;5671;47.936;8.716;2022-09-01T14:12:49;23.60;47.50
11229;DHT22;5671;47.936;8.716;2022-09-01T14:15:17;23.50;46.30
11229;DHT22;5671;47.936;8.716;2022-09-01T14:17:46;23.40;45.00
11229;DHT22;5671;47.936;8.716;2022-09-01T14:23:13;23.60;47.00
11229;DHT22;5671;47.936;8.716;2022-09-01T14:25:49;23.70;46.50
11229;DHT22;5671;47.936;8.716;2022-09-01T14:28:18;23.40;44.90
11229;DHT22;5671;47.936;8.716;2022-09-01T14:30:47;23.20;44.80
11229;DHT22;5671;47.936;8.716;2022-09-01T14:33:15;22.90;46.00
11229;DHT22;5671;47.936;8.716;2022-09-01T14:35:44;22.90;47.10
11229;DHT22;5671;47.936;8.716;2022-09-01T14:38:11;23.00;48.10
11229;DHT22;5671;47.936;8.716;2022-09-01T14:40:57;23.20;47.80
11229;DHT22;5671;47.936;8.716;2022-09-01T14:43:24;23.10;47.40
11229;DHT22;5671;47.936;8.716;2022-09-01T14:46:01;23.00;48.20
11229;DHT22;5671;47.936;8.716;2022-09-01T14:48:34;23.00;48.60
11229;DHT22;5671;47.936;8.716;2022-09-01T14:51:01;22.80;48.50
11229;DHT22;5671;47.936;8.716;2022-09-01T14:53:29;22.60;49.40
11229;DHT22;5671;47.936;8.716;2022-09-01T14:55:57;22.50;48.50
11229;DHT22;5671;47.936;8.716;2022-09-01T14:58:36;22.80;51.10
11229;DHT22;5671;47.936;8.716;2022-09-01T15:01:05;22.90;47.00
11229;DHT22;5671;47.936;8.716;2022-09-01T15:03:34;22.90;47.70
11229;DHT22;5671;47.936;8.716;2022-09-01T15:06:02;23.00;47.70
11229;DHT22;5671;47.936;8.716;2022-09-01T15:08:32;23.20;47.70
11229;DHT22;5671;47.936;8.716;2022-09-01T15:11:06;23.40;47.60
11229;DHT22;5671;47.936;8.716;2022-09-01T15:13:33;23.70;47.00
11229;DHT22;5671;47.936;8.716;2022-09-01T15:16:17;24.00;45.40
11229;DHT22;5671;47.936;8.716;2022-09-01T15:18:50;24.20;45.10
11229;DHT22;5671;47.936;8.716;2022-09-01T15:21:21;24.10;45.10
11229;DHT22;5671;47.936;8.716;2022-09-01T15:23:59;24.10;45.60
11229;DHT22;5671;47.936;8.716;2022-09-01T15:26:28;24.10;46.10
11229;DHT22;5671;47.936;8.716;2022-09-01T15:28:56;24.00;44.30
11229;DHT22;5671;47.936;8.716;2022-09-01T15:31:24;24.00;46.10
11229;DHT22;5671;47.936;8.716;2022-09-01T15:33:57;24.00;45.60
11229;DHT22;5671;47.936;8.716;2022-09-01T15:36:26;23.80;46.60
11229;DHT22;5671;47.936;8.716;2022-09-01T15:38:57;23.70;47.20
11229;DHT22;5671;47.936;8.716;2022-09-01T15:41:25;23.50;46.70
11229;DHT22;5671;47.936;8.716;2022-09-01T15:43:55;23.10;47.10
11229;DHT22;5671;47.936;8.716;2022-09-01T15:46:24;23.20;48.10
11229;DHT22;5671;47.936;8.716;2022-09-01T15:49:00;23.20;47.40
11229;DHT22;5671;47.936;8.716;2022-09-01T15:51:33;23.20;47.30
11229;DHT22;5671;47.936;8.716;2022-09-01T15:54:03;23.20;48.20
11229;DHT22;5671;47.936;8.716;2022-09-01T15:56:39;23.40;46.30
11229;DHT22;5671;47.936;8.716;2022-09-01T15:59:29;23.30;46.80
11229;DHT22;5671;47.936;8.716;2022-09-01T16:01:59;23.40;47.60
11229;DHT22;5671;47.936;8.716;2022-09-01T16:04:26;23.50;47.70
11229;DHT22;5671;47.936;8.716;2022-09-01T16:06:56;23.60;46.70
11229;DHT22;5671;47.936;8.716;2022-09-01T16:09:24;23.50;46.70
11229;DHT22;5671;47.936;8.716;2022-09-01T16:11:51;23.50;47.00
11229;DHT22;5671;47.936;8.716;2022-09-01T16:14:21;23.50;47.40
11229;DHT22;5671;47.936;8.716;2022-09-01T16:17:14;23.60;47.20
11229;DHT22;5671;47.936;8.716;2022-09-01T16:19:55;23.70;46.70
11229;DHT22;5671;47.936;8.716;2022-09-01T16:22:37;23.60;46.90
11229;DHT22;5671;47.936;8.716;2022-09-01T16:25:24;23.60;45.50
11229;DHT22;5671;47.936;8.716;2022-09-01T16:28:02;23.40;46.30
11229;DHT22;5671;47.936;8.716;2022-09-01T16:30:41;23.30;47.40
11229;DHT22;5671;47.936;8.716;2022-09-01T16:33:20;23.20;47.50
11229;DHT22;5671;47.936;8.716;2022-09-01T16:35:57;23.10;48.30
11229;DHT22;5671;47.936;8.716;2022-09-01T16:38:35;23.10;47.90
11229;DHT22;5671;47.936;8.716;2022-09-01T16:41:11;23.00;47.10